sensor_id;sensor_type;location;lat;lon;timestamp;temperature;humidity
67054;SHT31;53960;51.826;5.850;2023-05-07T00:00:06;15.52;84.66
67054;SHT31;53960;51.826;5.850;2023-05-07T00:02:34;15.49;84.95
67054;SHT31;53960;51.826;5.850;2023-05-07T00:05:01;15.45;85.10
67054;SHT31;53960;51.826;5.850;2023-05-07T00:07:27;15.47;84.63
67054;SHT31;53960;51.826;5.850;2023-05-07T00:09:52;15.47;84.64
67054;SHT31;53960;51.826;5.850;2023-05-07T00:12:18;15.39;84.98
67054;SHT31;53960;51.826;5.850;2023-05-07T00:14:43;15.44;84.81
67054;SHT31;53960;51.826;5.850;2023-05-07T00:17:08;15.44;84.88
67054;SHT31;53960;51.826;5.850;2023-05-07T00:19:34;15.39;85.08
67054;SHT31;53960;51.826;5.850;2023-05-07T00:21:59;15.37;85.06
67054;SHT31;53960;51.826;5.850;2023-05-07T00:24:24;15.34;85.27
67054;SHT31;53960;51.826;5.850;2023-05-07T00:26:50;15.30;85.18
67054;SHT31;53960;51.826;5.850;2023-05-07T00:29:15;15.31;85.32
67054;SHT31;53960;51.826;5.850;2023-05-07T00:31:40;15.37;85.23
67054;SHT31;53960;51.826;5.850;2023-05-07T00:34:06;15.31;85.61
67054;SHT31;53960;51.826;5.850;2023-05-07T00:36:31;15.34;85.49
67054;SHT31;53960;51.826;5.850;2023-05-07T00:38:59;15.30;85.56
67054;SHT31;53960;51.826;5.850;2023-05-07T00:41:25;15.35;85.82
67054;SHT31;53960;51.826;5.850;2023-05-07T00:43:50;15.30;85.94
67054;SHT31;53960;51.826;5.850;2023-05-07T00:46:18;15.27;86.08
67054;SHT31;53960;51.826;5.850;2023-05-07T00:48:45;15.27;86.06
67054;SHT31;53960;51.826;5.850;2023-05-07T00:51:10;15.23;86.03
67054;SHT31;53960;51.826;5.850;2023-05-07T00:53:36;15.20;86.28
67054;SHT31;53960;51.826;5.850;2023-05-07T00:56:02;15.23;86.06
67054;SHT31;53960;51.826;5.850;2023-05-07T00:58:28;15.16;86.00
67054;SHT31;53960;51.826;5.850;2023-05-07T01:00:53;15.12;86.57
67054;SHT31;53960;51.826;5.850;2023-05-07T01:03:18;15.12;85.98
67054;SHT31;53960;51.826;5.850;2023-05-07T01:05:45;15.16;86.16
67054;SHT31;53960;51.826;5.850;2023-05-07T01:08:13;15.10;86.28
67054;SHT31;53960;51.826;5.850;2023-05-07T01:10:39;15.12;86.11
67054;SHT31;53960;51.826;5.850;2023-05-07T01:13:09;15.11;86.44
67054;SHT31;53960;51.826;5.850;2023-05-07T01:15:35;15.16;86.15
67054;SHT31;53960;51.826;5.850;2023-05-07T01:18:00;15.14;86.19
67054;SHT31;53960;51.826;5.850;2023-05-07T01:20:27;15.07;86.30
67054;SHT31;53960;51.826;5.850;2023-05-07T01:22:53;15.03;86.48
67054;SHT31;53960;51.826;5.850;2023-05-07T01:25:18;15.07;86.93
67054;SHT31;53960;51.826;5.850;2023-05-07T01:27:44;15.04;86.91
67054;SHT31;53960;51.826;5.850;2023-05-07T01:30:10;15.04;87.09
67054;SHT31;53960;51.826;5.850;2023-05-07T01:32:47;15.03;87.33
67054;SHT31;53960;51.826;5.850;2023-05-07T01:35:17;15.08;87.13
67054;SHT31;53960;51.826;5.850;2023-05-07T01:37:44;15.18;86.59
67054;SHT31;53960;51.826;5.850;2023-05-07T01:40:10;15.16;87.12
67054;SHT31;53960;51.826;5.850;2023-05-07T01:42:36;15.11;87.19
67054;SHT31;53960;51.826;5.850;2023-05-07T01:45:01;15.17;87.28
67054;SHT31;53960;51.826;5.850;2023-05-07T01:47:27;15.23;86.87
67054;SHT31;53960;51.826;5.850;2023-05-07T01:49:54;15.21;87.02
67054;SHT31;53960;51.826;5.850;2023-05-07T01:52:20;15.21;87.41
67054;SHT31;53960;51.826;5.850;2023-05-07T01:54:45;15.23;87.06
67054;SHT31;53960;51.826;5.850;2023-05-07T01:57:11;15.20;87.45
67054;SHT31;53960;51.826;5.850;2023-05-07T01:59:36;15.21;87.24
67054;SHT31;53960;51.826;5.850;2023-05-07T02:02:01;15.20;86.87
67054;SHT31;53960;51.826;5.850;2023-05-07T02:04:27;15.23;87.10
67054;SHT31;53960;51.826;5.850;2023-05-07T02:06:52;15.20;86.84
67054;SHT31;53960;51.826;5.850;2023-05-07T02:09:18;15.23;86.80
67054;SHT31;53960;51.826;5.850;2023-05-07T02:11:44;15.24;87.10
67054;SHT31;53960;51.826;5.850;2023-05-07T02:14:09;15.21;87.26
67054;SHT31;53960;51.826;5.850;2023-05-07T02:16:35;15.27;86.47
67054;SHT31;53960;51.826;5.850;2023-05-07T02:19:00;15.24;86.74
67054;SHT31;53960;51.826;5.850;2023-05-07T02:21:25;15.24;87.03
67054;SHT31;53960;51.826;5.850;2023-05-07T02:23:51;15.23;87.02
67054;SHT31;53960;51.826;5.850;2023-05-07T02:26:16;15.24;86.60
67054;SHT31;53960;51.826;5.850;2023-05-07T02:28:41;15.20;86.84
67054;SHT31;53960;51.826;5.850;2023-05-07T02:31:06;15.24;86.52
67054;SHT31;53960;51.826;5.850;2023-05-07T02:33:32;15.30;86.22
67054;SHT31;53960;51.826;5.850;2023-05-07T02:36:05;15.21;86.89
67054;SHT31;53960;51.826;5.850;2023-05-07T02:38:31;15.21;86.78
67054;SHT31;53960;51.826;5.850;2023-05-07T02:40:56;15.17;87.24
67054;SHT31;53960;51.826;5.850;2023-05-07T02:43:22;15.20;86.78
67054;SHT31;53960;51.826;5.850;2023-05-07T02:45:47;15.21;86.58
67054;SHT31;53960;51.826;5.850;2023-05-07T02:48:12;15.24;86.75
67054;SHT31;53960;51.826;5.850;2023-05-07T02:50:37;15.21;86.48
67054;SHT31;53960;51.826;5.850;2023-05-07T02:53:03;15.24;86.22
67054;SHT31;53960;51.826;5.850;2023-05-07T02:55:28;15.20;86.59
67054;SHT31;53960;51.826;5.850;2023-05-07T02:57:53;15.16;86.69
67054;SHT31;53960;51.826;5.850;2023-05-07T03:00:19;15.20;86.35
67054;SHT31;53960;51.826;5.850;2023-05-07T03:02:45;15.12;86.40
67054;SHT31;53960;51.826;5.850;2023-05-07T03:05:11;15.11;86.54
67054;SHT31;53960;51.826;5.850;2023-05-07T03:07:37;15.10;86.88
67054;SHT31;53960;51.826;5.850;2023-05-07T03:10:03;15.18;86.44
67054;SHT31;53960;51.826;5.850;2023-05-07T03:12:29;15.16;86.49
67054;SHT31;53960;51.826;5.850;2023-05-07T03:14:54;15.11;86.67
67054;SHT31;53960;51.826;5.850;2023-05-07T03:17:21;15.11;86.58
67054;SHT31;53960;51.826;5.850;2023-05-07T03:19:47;15.08;86.70
67054;SHT31;53960;51.826;5.850;2023-05-07T03:22:12;15.10;86.77
67054;SHT31;53960;51.826;5.850;2023-05-07T03:24:37;15.06;86.72
67054;SHT31;53960;51.826;5.850;2023-05-07T03:27:03;15.01;86.92
67054;SHT31;53960;51.826;5.850;2023-05-07T03:29:28;15.01;86.86
67054;SHT31;53960;51.826;5.850;2023-05-07T03:31:53;15.04;86.95
67054;SHT31;53960;51.826;5.850;2023-05-07T03:34:19;15.07;86.79
67054;SHT31;53960;51.826;5.850;2023-05-07T03:36:48;15.03;86.94
67054;SHT31;53960;51.826;5.850;2023-05-07T03:39:13;14.94;87.19
67054;SHT31;53960;51.826;5.850;2023-05-07T03:41:38;14.96;87.31
67054;SHT31;53960;51.826;5.850;2023-05-07T03:44:04;14.94;87.17
67054;SHT31;53960;51.826;5.850;2023-05-07T03:46:29;14.94;87.25
67054;SHT31;53960;51.826;5.850;2023-05-07T03:48:54;14.98;87.32
67054;SHT31;53960;51.826;5.850;2023-05-07T03:51:20;14.94;87.45
67054;SHT31;53960;51.826;5.850;2023-05-07T03:53:45;14.93;87.51
67054;SHT31;53960;51.826;5.850;2023-05-07T03:56:11;14.96;87.36
67054;SHT31;53960;51.826;5.850;2023-05-07T03:58:36;14.97;87.37
67054;SHT31;53960;51.826;5.850;2023-05-07T04:01:01;15.00;87.10
67054;SHT31;53960;51.826;5.850;2023-05-07T04:03:27;14.98;87.15
67054;SHT31;53960;51.826;5.850;2023-05-07T04:05:52;14.94;87.39
67054;SHT31;53960;51.826;5.850;2023-05-07T04:08:17;14.96;87.32
67054;SHT31;53960;51.826;5.850;2023-05-07T04:10:43;14.96;87.26
67054;SHT31;53960;51.826;5.850;2023-05-07T04:13:08;15.00;87.15
67054;SHT31;53960;51.826;5.850;2023-05-07T04:15:33;14.98;87.25
67054;SHT31;53960;51.826;5.850;2023-05-07T04:17:58;15.01;87.19
67054;SHT31;53960;51.826;5.850;2023-05-07T04:20:24;14.98;87.30
67054;SHT31;53960;51.826;5.850;2023-05-07T04:22:49;15.00;87.36
67054;SHT31;53960;51.826;5.850;2023-05-07T04:25:15;15.01;87.30
67054;SHT31;53960;51.826;5.850;2023-05-07T04:27:41;15.10;87.23
67054;SHT31;53960;51.826;5.850;2023-05-07T04:30:07;15.07;87.13
67054;SHT31;53960;51.826;5.850;2023-05-07T04:32:32;15.04;87.23
67054;SHT31;53960;51.826;5.850;2023-05-07T04:34:57;15.08;87.22
67054;SHT31;53960;51.826;5.850;2023-05-07T04:37:25;15.12;87.02
67054;SHT31;53960;51.826;5.850;2023-05-07T04:39:51;15.06;87.27
67054;SHT31;53960;51.826;5.850;2023-05-07T04:42:17;15.01;87.60
67054;SHT31;53960;51.826;5.850;2023-05-07T04:44:43;15.04;87.73
67054;SHT31;53960;51.826;5.850;2023-05-07T04:47:09;15.07;87.57
67054;SHT31;53960;51.826;5.850;2023-05-07T04:49:35;15.01;87.58
67054;SHT31;53960;51.826;5.850;2023-05-07T04:52:00;15.06;87.54
67054;SHT31;53960;51.826;5.850;2023-05-07T04:54:26;15.04;87.79
67054;SHT31;53960;51.826;5.850;2023-05-07T04:56:51;15.01;87.72
67054;SHT31;53960;51.826;5.850;2023-05-07T04:59:17;15.04;87.81
67054;SHT31;53960;51.826;5.850;2023-05-07T05:01:42;15.08;87.61
67054;SHT31;53960;51.826;5.850;2023-05-07T05:04:07;15.10;87.55
67054;SHT31;53960;51.826;5.850;2023-05-07T05:06:32;15.11;87.49
67054;SHT31;53960;51.826;5.850;2023-05-07T05:08:58;15.11;87.38
67054;SHT31;53960;51.826;5.850;2023-05-07T05:11:23;15.16;87.36
67054;SHT31;53960;51.826;5.850;2023-05-07T05:13:49;15.17;87.35
67054;SHT31;53960;51.826;5.850;2023-05-07T05:16:14;15.17;87.40
67054;SHT31;53960;51.826;5.850;2023-05-07T05:18:40;15.14;87.56
67054;SHT31;53960;51.826;5.850;2023-05-07T05:21:05;15.17;87.64
67054;SHT31;53960;51.826;5.850;2023-05-07T05:23:31;15.21;87.52
67054;SHT31;53960;51.826;5.850;2023-05-07T05:25:57;15.27;87.44
67054;SHT31;53960;51.826;5.850;2023-05-07T05:28:25;15.27;87.38
67054;SHT31;53960;51.826;5.850;2023-05-07T05:30:50;15.23;87.33
67054;SHT31;53960;51.826;5.850;2023-05-07T05:33:16;15.27;87.28
67054;SHT31;53960;51.826;5.850;2023-05-07T05:35:41;15.25;87.54
67054;SHT31;53960;51.826;5.850;2023-05-07T05:38:07;15.30;87.41
67054;SHT31;53960;51.826;5.850;2023-05-07T05:40:32;15.28;87.36
67054;SHT31;53960;51.826;5.850;2023-05-07T05:42:58;15.30;87.34
67054;SHT31;53960;51.826;5.850;2023-05-07T05:45:24;15.30;87.51
67054;SHT31;53960;51.826;5.850;2023-05-07T05:47:49;15.31;87.53
67054;SHT31;53960;51.826;5.850;2023-05-07T05:50:15;15.35;87.62
67054;SHT31;53960;51.826;5.850;2023-05-07T05:52:40;15.38;87.35
67054;SHT31;53960;51.826;5.850;2023-05-07T05:55:06;15.32;87.55
67054;SHT31;53960;51.826;5.850;2023-05-07T05:57:31;15.32;87.74
67054;SHT31;53960;51.826;5.850;2023-05-07T05:59:57;15.31;87.86
67054;SHT31;53960;51.826;5.850;2023-05-07T06:02:22;15.32;87.78
67054;SHT31;53960;51.826;5.850;2023-05-07T06:04:47;15.38;87.68
67054;SHT31;53960;51.826;5.850;2023-05-07T06:07:13;15.42;87.78
67054;SHT31;53960;51.826;5.850;2023-05-07T06:09:38;15.35;87.78
67054;SHT31;53960;51.826;5.850;2023-05-07T06:12:03;15.44;87.80
67054;SHT31;53960;51.826;5.850;2023-05-07T06:14:29;15.48;87.78
67054;SHT31;53960;51.826;5.850;2023-05-07T06:16:54;15.48;87.71
67054;SHT31;53960;51.826;5.850;2023-05-07T06:19:19;15.47;87.87
67054;SHT31;53960;51.826;5.850;2023-05-07T06:21:48;15.51;87.94
67054;SHT31;53960;51.826;5.850;2023-05-07T06:24:13;15.56;87.83
67054;SHT31;53960;51.826;5.850;2023-05-07T06:26:39;15.55;88.09
67054;SHT31;53960;51.826;5.850;2023-05-07T06:29:05;15.51;87.91
67054;SHT31;53960;51.826;5.850;2023-05-07T06:31:30;15.55;87.99
67054;SHT31;53960;51.826;5.850;2023-05-07T06:33:57;15.58;87.92
67054;SHT31;53960;51.826;5.850;2023-05-07T06:36:22;15.59;88.04
67054;SHT31;53960;51.826;5.850;2023-05-07T06:38:48;15.62;88.00
67054;SHT31;53960;51.826;5.850;2023-05-07T06:41:13;15.59;88.08
67054;SHT31;53960;51.826;5.850;2023-05-07T06:43:38;15.59;88.19
67054;SHT31;53960;51.826;5.850;2023-05-07T06:46:04;15.55;88.51
67054;SHT31;53960;51.826;5.850;2023-05-07T06:48:30;15.52;88.63
67054;SHT31;53960;51.826;5.850;2023-05-07T06:50:55;15.55;88.74
67054;SHT31;53960;51.826;5.850;2023-05-07T06:53:22;15.62;88.34
67054;SHT31;53960;51.826;5.850;2023-05-07T06:55:48;15.62;88.38
67054;SHT31;53960;51.826;5.850;2023-05-07T06:58:13;15.62;88.59
67054;SHT31;53960;51.826;5.850;2023-05-07T07:00:39;15.72;88.36
67054;SHT31;53960;51.826;5.850;2023-05-07T07:03:05;15.73;88.27
67054;SHT31;53960;51.826;5.850;2023-05-07T07:05:31;15.76;88.20
67054;SHT31;53960;51.826;5.850;2023-05-07T07:07:56;15.73;88.20
67054;SHT31;53960;51.826;5.850;2023-05-07T07:10:22;15.81;88.20
67054;SHT31;53960;51.826;5.850;2023-05-07T07:12:48;15.87;88.10
67054;SHT31;53960;51.826;5.850;2023-05-07T07:15:14;15.86;88.10
67054;SHT31;53960;51.826;5.850;2023-05-07T07:17:39;15.79;88.02
67054;SHT31;53960;51.826;5.850;2023-05-07T07:20:05;15.81;87.65
67054;SHT31;53960;51.826;5.850;2023-05-07T07:22:31;15.82;87.49
67054;SHT31;53960;51.826;5.850;2023-05-07T07:24:56;15.90;87.61
67054;SHT31;53960;51.826;5.850;2023-05-07T07:27:21;15.97;87.71
67054;SHT31;53960;51.826;5.850;2023-05-07T07:29:46;15.99;87.73
67054;SHT31;53960;51.826;5.850;2023-05-07T07:32:12;16.06;87.38
67054;SHT31;53960;51.826;5.850;2023-05-07T07:34:37;16.06;87.11
67054;SHT31;53960;51.826;5.850;2023-05-07T07:37:02;16.06;86.95
67054;SHT31;53960;51.826;5.850;2023-05-07T07:39:31;16.07;87.31
67054;SHT31;53960;51.826;5.850;2023-05-07T07:41:57;16.10;87.18
67054;SHT31;53960;51.826;5.850;2023-05-07T07:44:22;16.23;86.75
67054;SHT31;53960;51.826;5.850;2023-05-07T07:46:47;16.18;86.51
67054;SHT31;53960;51.826;5.850;2023-05-07T07:49:13;16.18;86.46
67054;SHT31;53960;51.826;5.850;2023-05-07T07:51:39;16.24;86.76
67054;SHT31;53960;51.826;5.850;2023-05-07T07:54:04;16.23;86.76
67054;SHT31;53960;51.826;5.850;2023-05-07T07:56:29;16.23;86.82
67054;SHT31;53960;51.826;5.850;2023-05-07T07:58:55;16.27;86.50
67054;SHT31;53960;51.826;5.850;2023-05-07T08:01:20;16.37;86.55
67054;SHT31;53960;51.826;5.850;2023-05-07T08:03:45;16.45;86.79
67054;SHT31;53960;51.826;5.850;2023-05-07T08:06:11;16.51;86.15
67054;SHT31;53960;51.826;5.850;2023-05-07T08:08:36;16.61;86.24
67054;SHT31;53960;51.826;5.850;2023-05-07T08:11:01;16.65;86.15
67054;SHT31;53960;51.826;5.850;2023-05-07T08:13:27;16.71;85.82
67054;SHT31;53960;51.826;5.850;2023-05-07T08:15:52;16.72;85.76
67054;SHT31;53960;51.826;5.850;2023-05-07T08:18:17;16.81;85.69
67054;SHT31;53960;51.826;5.850;2023-05-07T08:20:43;16.89;85.50
67054;SHT31;53960;51.826;5.850;2023-05-07T08:23:08;16.98;85.31
67054;SHT31;53960;51.826;5.850;2023-05-07T08:25:34;16.95;84.57
67054;SHT31;53960;51.826;5.850;2023-05-07T08:28:00;17.01;84.79
67054;SHT31;53960;51.826;5.850;2023-05-07T08:30:25;17.09;84.94
67054;SHT31;53960;51.826;5.850;2023-05-07T08:32:51;17.25;85.23
67054;SHT31;53960;51.826;5.850;2023-05-07T08:35:16;17.32;84.62
67054;SHT31;53960;51.826;5.850;2023-05-07T08:37:41;17.50;83.94
67054;SHT31;53960;51.826;5.850;2023-05-07T08:40:07;17.62;83.90
67054;SHT31;53960;51.826;5.850;2023-05-07T08:42:35;17.60;83.13
67054;SHT31;53960;51.826;5.850;2023-05-07T08:45:02;17.64;82.90
67054;SHT31;53960;51.826;5.850;2023-05-07T08:47:43;17.66;82.90
67054;SHT31;53960;51.826;5.850;2023-05-07T08:50:10;17.78;82.39
67054;SHT31;53960;51.826;5.850;2023-05-07T08:52:36;17.95;82.34
67054;SHT31;53960;51.826;5.850;2023-05-07T08:55:02;18.14;82.37
67054;SHT31;53960;51.826;5.850;2023-05-07T08:57:28;18.25;82.11
67054;SHT31;53960;51.826;5.850;2023-05-07T08:59:53;18.31;81.40
67054;SHT31;53960;51.826;5.850;2023-05-07T09:02:19;18.31;80.74
67054;SHT31;53960;51.826;5.850;2023-05-07T09:04:44;18.31;80.42
67054;SHT31;53960;51.826;5.850;2023-05-07T09:07:09;18.48;80.45
67054;SHT31;53960;51.826;5.850;2023-05-07T09:09:35;18.63;80.71
67054;SHT31;53960;51.826;5.850;2023-05-07T09:12:00;18.57;79.89
67054;SHT31;53960;51.826;5.850;2023-05-07T09:14:27;18.57;79.35
67054;SHT31;53960;51.826;5.850;2023-05-07T09:16:53;18.63;79.59
67054;SHT31;53960;51.826;5.850;2023-05-07T09:19:26;18.67;79.04
67054;SHT31;53960;51.826;5.850;2023-05-07T09:22:02;18.82;80.47
67054;SHT31;53960;51.826;5.850;2023-05-07T09:24:28;18.96;79.85
67054;SHT31;53960;51.826;5.850;2023-05-07T09:27:01;19.06;79.17
67054;SHT31;53960;51.826;5.850;2023-05-07T09:29:28;19.17;79.34
67054;SHT31;53960;51.826;5.850;2023-05-07T09:32:07;19.34;78.97
67054;SHT31;53960;51.826;5.850;2023-05-07T09:34:33;19.34;77.54
67054;SHT31;53960;51.826;5.850;2023-05-07T09:37:00;19.49;78.22
67054;SHT31;53960;51.826;5.850;2023-05-07T09:39:25;19.51;77.22
67054;SHT31;53960;51.826;5.850;2023-05-07T09:41:51;19.62;77.64
67054;SHT31;53960;51.826;5.850;2023-05-07T09:44:20;19.65;77.37
67054;SHT31;53960;51.826;5.850;2023-05-07T09:46:47;19.80;77.95
67054;SHT31;53960;51.826;5.850;2023-05-07T09:49:23;19.97;77.41
67054;SHT31;53960;51.826;5.850;2023-05-07T09:51:50;20.05;76.38
67054;SHT31;53960;51.826;5.850;2023-05-07T09:54:17;20.06;76.30
67054;SHT31;53960;51.826;5.850;2023-05-07T09:56:44;20.03;76.49
67054;SHT31;53960;51.826;5.850;2023-05-07T09:59:12;20.09;75.68
67054;SHT31;53960;51.826;5.850;2023-05-07T10:01:38;20.24;76.19
67054;SHT31;53960;51.826;5.850;2023-05-07T10:04:05;20.33;75.42
67054;SHT31;53960;51.826;5.850;2023-05-07T10:06:34;20.34;75.37
67054;SHT31;53960;51.826;5.850;2023-05-07T10:09:00;20.44;75.13
67054;SHT31;53960;51.826;5.850;2023-05-07T10:11:26;20.47;74.32
67054;SHT31;53960;51.826;5.850;2023-05-07T10:13:52;20.44;73.41
67054;SHT31;53960;51.826;5.850;2023-05-07T10:16:19;20.48;72.10
67054;SHT31;53960;51.826;5.850;2023-05-07T10:18:45;20.48;72.53
67054;SHT31;53960;51.826;5.850;2023-05-07T10:21:16;20.61;73.13
67054;SHT31;53960;51.826;5.850;2023-05-07T10:23:45;20.64;71.65
67054;SHT31;53960;51.826;5.850;2023-05-07T10:26:13;20.72;72.55
67054;SHT31;53960;51.826;5.850;2023-05-07T10:28:42;20.74;72.51
67054;SHT31;53960;51.826;5.850;2023-05-07T10:31:38;20.78;71.19
67054;SHT31;53960;51.826;5.850;2023-05-07T10:34:11;20.88;71.39
67054;SHT31;53960;51.826;5.850;2023-05-07T10:36:38;20.81;70.44
67054;SHT31;53960;51.826;5.850;2023-05-07T10:39:05;20.91;71.14
67054;SHT31;53960;51.826;5.850;2023-05-07T10:41:31;20.94;70.20
67054;SHT31;53960;51.826;5.850;2023-05-07T10:43:56;21.00;71.14
67054;SHT31;53960;51.826;5.850;2023-05-07T10:46:22;21.15;70.95
67054;SHT31;53960;51.826;5.850;2023-05-07T10:51:29;21.37;70.09
67054;SHT31;53960;51.826;5.850;2023-05-07T10:56:39;21.37;69.64
67054;SHT31;53960;51.826;5.850;2023-05-07T10:59:31;21.42;69.14
67054;SHT31;53960;51.826;5.850;2023-05-07T11:01:58;21.40;68.84
67054;SHT31;53960;51.826;5.850;2023-05-07T11:04:24;21.33;69.83
67054;SHT31;53960;51.826;5.850;2023-05-07T11:15:02;21.10;70.29
67054;SHT31;53960;51.826;5.850;2023-05-07T11:17:28;20.98;69.38
67054;SHT31;53960;51.826;5.850;2023-05-07T11:19:57;20.95;68.95
67054;SHT31;53960;51.826;5.850;2023-05-07T11:25:00;20.77;69.95
67054;SHT31;53960;51.826;5.850;2023-05-07T11:27:26;20.75;70.49
67054;SHT31;53960;51.826;5.850;2023-05-07T11:29:52;20.69;70.52
67054;SHT31;53960;51.826;5.850;2023-05-07T11:32:28;20.71;71.55
67054;SHT31;53960;51.826;5.850;2023-05-07T11:34:55;20.74;71.82
67054;SHT31;53960;51.826;5.850;2023-05-07T11:37:22;20.71;70.69
67054;SHT31;53960;51.826;5.850;2023-05-07T11:39:48;20.71;70.55
67054;SHT31;53960;51.826;5.850;2023-05-07T11:42:31;20.74;71.38
67054;SHT31;53960;51.826;5.850;2023-05-07T11:44:57;20.77;71.89
67054;SHT31;53960;51.826;5.850;2023-05-07T11:47:22;20.77;69.37
67054;SHT31;53960;51.826;5.850;2023-05-07T11:49:48;20.77;69.81
67054;SHT31;53960;51.826;5.850;2023-05-07T11:52:15;20.85;70.79
67054;SHT31;53960;51.826;5.850;2023-05-07T11:54:41;20.94;70.35
67054;SHT31;53960;51.826;5.850;2023-05-07T11:57:06;20.95;69.96
67054;SHT31;53960;51.826;5.850;2023-05-07T11:59:39;20.95;68.57
67054;SHT31;53960;51.826;5.850;2023-05-07T12:02:06;20.95;68.88
67054;SHT31;53960;51.826;5.850;2023-05-07T12:04:31;20.96;69.64
67054;SHT31;53960;51.826;5.850;2023-05-07T12:06:56;21.00;69.27
67054;SHT31;53960;51.826;5.850;2023-05-07T12:09:22;21.06;70.93
67054;SHT31;53960;51.826;5.850;2023-05-07T12:11:48;21.13;69.71
67054;SHT31;53960;51.826;5.850;2023-05-07T12:14:14;21.12;69.01
67054;SHT31;53960;51.826;5.850;2023-05-07T12:16:41;21.15;68.80
67054;SHT31;53960;51.826;5.850;2023-05-07T12:19:07;21.18;69.24
67054;SHT31;53960;51.826;5.850;2023-05-07T12:21:34;21.26;70.85
67054;SHT31;53960;51.826;5.850;2023-05-07T12:24:00;21.22;68.61
67054;SHT31;53960;51.826;5.850;2023-05-07T12:26:26;21.20;69.20
67054;SHT31;53960;51.826;5.850;2023-05-07T12:28:51;21.16;68.95
67054;SHT31;53960;51.826;5.850;2023-05-07T12:31:17;21.18;69.74
67054;SHT31;53960;51.826;5.850;2023-05-07T12:33:42;21.22;68.75
67054;SHT31;53960;51.826;5.850;2023-05-07T12:36:08;21.20;69.17
67054;SHT31;53960;51.826;5.850;2023-05-07T12:38:37;21.29;68.70
67054;SHT31;53960;51.826;5.850;2023-05-07T12:41:03;21.33;68.29
67054;SHT31;53960;51.826;5.850;2023-05-07T12:43:29;21.32;66.39
67054;SHT31;53960;51.826;5.850;2023-05-07T12:45:56;21.39;67.99
67054;SHT31;53960;51.826;5.850;2023-05-07T12:48:23;21.42;66.57
67054;SHT31;53960;51.826;5.850;2023-05-07T12:50:55;21.51;67.63
67054;SHT31;53960;51.826;5.850;2023-05-07T12:53:22;21.68;67.30
67054;SHT31;53960;51.826;5.850;2023-05-07T12:55:49;21.91;65.95
67054;SHT31;53960;51.826;5.850;2023-05-07T12:58:34;21.87;65.87
67054;SHT31;53960;51.826;5.850;2023-05-07T13:01:04;21.86;67.39
67054;SHT31;53960;51.826;5.850;2023-05-07T13:03:32;21.77;65.86
67054;SHT31;53960;51.826;5.850;2023-05-07T13:06:00;21.74;67.08
67054;SHT31;53960;51.826;5.850;2023-05-07T13:08:33;21.64;66.31
67054;SHT31;53960;51.826;5.850;2023-05-07T13:11:00;21.63;66.78
67054;SHT31;53960;51.826;5.850;2023-05-07T13:13:32;21.53;66.72
67054;SHT31;53960;51.826;5.850;2023-05-07T13:15:58;21.53;67.93
67054;SHT31;53960;51.826;5.850;2023-05-07T13:18:25;21.49;67.56
67054;SHT31;53960;51.826;5.850;2023-05-07T13:20:50;21.42;66.35
67054;SHT31;53960;51.826;5.850;2023-05-07T13:23:17;21.43;65.91
67054;SHT31;53960;51.826;5.850;2023-05-07T13:25:42;21.33;66.47
67054;SHT31;53960;51.826;5.850;2023-05-07T13:28:08;21.36;67.90
67054;SHT31;53960;51.826;5.850;2023-05-07T13:30:33;21.33;66.21
67054;SHT31;53960;51.826;5.850;2023-05-07T13:32:58;21.39;67.67
67054;SHT31;53960;51.826;5.850;2023-05-07T13:35:24;21.36;66.59
67054;SHT31;53960;51.826;5.850;2023-05-07T13:37:49;21.30;65.91
67054;SHT31;53960;51.826;5.850;2023-05-07T13:40:15;21.29;66.77
67054;SHT31;53960;51.826;5.850;2023-05-07T13:42:40;21.23;68.52
67054;SHT31;53960;51.826;5.850;2023-05-07T13:45:07;21.22;68.45
67054;SHT31;53960;51.826;5.850;2023-05-07T13:47:32;21.20;67.48
67054;SHT31;53960;51.826;5.850;2023-05-07T13:49:57;21.16;67.12
67054;SHT31;53960;51.826;5.850;2023-05-07T13:52:23;21.10;67.57
67054;SHT31;53960;51.826;5.850;2023-05-07T13:54:48;21.09;67.47
67054;SHT31;53960;51.826;5.850;2023-05-07T13:57:13;21.06;68.70
67054;SHT31;53960;51.826;5.850;2023-05-07T13:59:40;21.09;69.04
67054;SHT31;53960;51.826;5.850;2023-05-07T14:02:05;21.08;68.92
67054;SHT31;53960;51.826;5.850;2023-05-07T14:04:31;21.06;67.88
67054;SHT31;53960;51.826;5.850;2023-05-07T14:06:56;21.00;69.35
67054;SHT31;53960;51.826;5.850;2023-05-07T14:09:21;20.98;68.21
67054;SHT31;53960;51.826;5.850;2023-05-07T14:11:47;20.96;68.27
67054;SHT31;53960;51.826;5.850;2023-05-07T14:14:16;20.91;68.13
67054;SHT31;53960;51.826;5.850;2023-05-07T14:16:41;20.92;67.16
67054;SHT31;53960;51.826;5.850;2023-05-07T14:19:07;20.92;68.21
67054;SHT31;53960;51.826;5.850;2023-05-07T14:21:32;20.94;68.55
67054;SHT31;53960;51.826;5.850;2023-05-07T14:23:57;20.95;68.88
67054;SHT31;53960;51.826;5.850;2023-05-07T14:26:23;20.95;68.72
67054;SHT31;53960;51.826;5.850;2023-05-07T14:28:48;20.95;68.64
67054;SHT31;53960;51.826;5.850;2023-05-07T14:31:14;20.92;67.83
67054;SHT31;53960;51.826;5.850;2023-05-07T14:33:39;20.84;67.95
67054;SHT31;53960;51.826;5.850;2023-05-07T14:36:05;20.75;64.98
67054;SHT31;53960;51.826;5.850;2023-05-07T14:38:30;20.57;65.35
67054;SHT31;53960;51.826;5.850;2023-05-07T14:40:58;20.37;65.14
67054;SHT31;53960;51.826;5.850;2023-05-07T14:43:23;20.20;65.68
67054;SHT31;53960;51.826;5.850;2023-05-07T14:45:48;20.09;66.20
67054;SHT31;53960;51.826;5.850;2023-05-07T14:48:14;19.85;67.21
67054;SHT31;53960;51.826;5.850;2023-05-07T14:50:41;19.62;67.51
67054;SHT31;53960;51.826;5.850;2023-05-07T14:53:06;19.54;68.47
67054;SHT31;53960;51.826;5.850;2023-05-07T14:55:32;19.44;69.49
67054;SHT31;53960;51.826;5.850;2023-05-07T14:57:57;19.30;70.14
67054;SHT31;53960;51.826;5.850;2023-05-07T15:00:22;19.22;72.12
67054;SHT31;53960;51.826;5.850;2023-05-07T15:02:48;19.06;74.62
67054;SHT31;53960;51.826;5.850;2023-05-07T15:05:13;18.99;75.55
67054;SHT31;53960;51.826;5.850;2023-05-07T15:07:39;18.82;77.64
67054;SHT31;53960;51.826;5.850;2023-05-07T15:10:05;18.62;79.27
67054;SHT31;53960;51.826;5.850;2023-05-07T15:12:31;18.51;79.11
67054;SHT31;53960;51.826;5.850;2023-05-07T15:14:56;18.33;80.99
67054;SHT31;53960;51.826;5.850;2023-05-07T15:17:21;18.24;80.98
67054;SHT31;53960;51.826;5.850;2023-05-07T15:19:46;18.16;81.14
67054;SHT31;53960;51.826;5.850;2023-05-07T15:22:12;18.04;82.29
67054;SHT31;53960;51.826;5.850;2023-05-07T15:24:37;17.97;82.15
67054;SHT31;53960;51.826;5.850;2023-05-07T15:27:02;17.94;81.96
67054;SHT31;53960;51.826;5.850;2023-05-07T15:29:28;17.93;83.29
67054;SHT31;53960;51.826;5.850;2023-05-07T15:31:53;17.85;82.53
67054;SHT31;53960;51.826;5.850;2023-05-07T15:34:20;17.75;83.26
67054;SHT31;53960;51.826;5.850;2023-05-07T15:36:48;17.74;84.25
67054;SHT31;53960;51.826;5.850;2023-05-07T15:39:13;17.74;84.22